sensor_id;sensor_type;location;lat;lon;timestamp;P1;durP1;ratioP1;P2;durP2;ratioP2
37483;SDS011;23337;52.212;9.926;2023-04-24T00:00:47;0.80;;;0.60;;
37483;SDS011;23337;52.212;9.926;2023-04-24T00:03:13;1.20;;;0.60;;
37483;SDS011;23337;52.212;9.926;2023-04-24T00:05:39;0.90;;;0.90;;
37483;SDS011;23337;52.212;9.926;2023-04-24T00:08:05;0.73;;;0.70;;
37483;SDS011;23337;52.212;9.926;2023-04-24T00:10:31;0.67;;;0.67;;
37483;SDS011;23337;52.212;9.926;2023-04-24T00:12:57;2.23;;;0.93;;
37483;SDS011;23337;52.212;9.926;2023-04-24T00:15:23;1.87;;;0.83;;
37483;SDS011;23337;52.212;9.926;2023-04-24T00:17:49;0.60;;;0.60;;
37483;SDS011;23337;52.212;9.926;2023-04-24T00:20:15;1.00;;;0.50;;
37483;SDS011;23337;52.212;9.926;2023-04-24T00:22:41;0.67;;;0.57;;
37483;SDS011;23337;52.212;9.926;2023-04-24T00:25:07;1.90;;;0.83;;
37483;SDS011;23337;52.212;9.926;2023-04-24T00:27:33;1.00;;;0.90;;
37483;SDS011;23337;52.212;9.926;2023-04-24T00:30:02;1.07;;;0.80;;
37483;SDS011;23337;52.212;9.926;2023-04-24T00:32:28;2.10;;;1.07;;
37483;SDS011;23337;52.212;9.926;2023-04-24T00:34:54;3.23;;;0.70;;
37483;SDS011;23337;52.212;9.926;2023-04-24T00:37:20;1.30;;;0.77;;
37483;SDS011;23337;52.212;9.926;2023-04-24T00:39:46;1.80;;;0.93;;
37483;SDS011;23337;52.212;9.926;2023-04-24T00:42:12;1.90;;;0.50;;
37483;SDS011;23337;52.212;9.926;2023-04-24T00:44:38;1.50;;;0.83;;
37483;SDS011;23337;52.212;9.926;2023-04-24T00:47:04;1.80;;;1.00;;
37483;SDS011;23337;52.212;9.926;2023-04-24T00:49:30;1.00;;;0.90;;
37483;SDS011;23337;52.212;9.926;2023-04-24T00:51:56;1.43;;;0.87;;
37483;SDS011;23337;52.212;9.926;2023-04-24T00:54:24;0.93;;;0.80;;
37483;SDS011;23337;52.212;9.926;2023-04-24T00:56:50;1.40;;;0.90;;
37483;SDS011;23337;52.212;9.926;2023-04-24T00:59:17;1.17;;;1.07;;
37483;SDS011;23337;52.212;9.926;2023-04-24T01:01:43;1.10;;;1.00;;
37483;SDS011;23337;52.212;9.926;2023-04-24T01:04:11;3.53;;;1.13;;
37483;SDS011;23337;52.212;9.926;2023-04-24T01:06:38;0.90;;;0.80;;
37483;SDS011;23337;52.212;9.926;2023-04-24T01:09:05;2.53;;;0.80;;
37483;SDS011;23337;52.212;9.926;2023-04-24T01:11:32;2.73;;;1.10;;
37483;SDS011;23337;52.212;9.926;2023-04-24T01:13:58;1.43;;;0.90;;
37483;SDS011;23337;52.212;9.926;2023-04-24T01:16:25;1.53;;;0.90;;
37483;SDS011;23337;52.212;9.926;2023-04-24T01:18:51;1.27;;;0.80;;
37483;SDS011;23337;52.212;9.926;2023-04-24T01:21:17;3.87;;;0.80;;
37483;SDS011;23337;52.212;9.926;2023-04-24T01:23:44;1.20;;;1.10;;
37483;SDS011;23337;52.212;9.926;2023-04-24T01:26:10;1.80;;;0.90;;
37483;SDS011;23337;52.212;9.926;2023-04-24T01:28:36;1.17;;;0.87;;
37483;SDS011;23337;52.212;9.926;2023-04-24T01:31:02;1.00;;;0.90;;
37483;SDS011;23337;52.212;9.926;2023-04-24T01:33:28;1.97;;;0.77;;
37483;SDS011;23337;52.212;9.926;2023-04-24T01:35:54;1.87;;;0.90;;
37483;SDS011;23337;52.212;9.926;2023-04-24T01:38:20;1.90;;;0.83;;
37483;SDS011;23337;52.212;9.926;2023-04-24T01:40:47;1.10;;;0.90;;
37483;SDS011;23337;52.212;9.926;2023-04-24T01:43:13;1.67;;;1.10;;
37483;SDS011;23337;52.212;9.926;2023-04-24T01:45:39;1.67;;;0.80;;
37483;SDS011;23337;52.212;9.926;2023-04-24T01:48:05;0.70;;;0.70;;
37483;SDS011;23337;52.212;9.926;2023-04-24T01:50:31;0.80;;;0.80;;
37483;SDS011;23337;52.212;9.926;2023-04-24T01:52:57;2.03;;;1.57;;
37483;SDS011;23337;52.212;9.926;2023-04-24T01:55:23;2.47;;;2.27;;
37483;SDS011;23337;52.212;9.926;2023-04-24T01:57:49;1.60;;;1.50;;
37483;SDS011;23337;52.212;9.926;2023-04-24T02:00:15;1.60;;;1.50;;
37483;SDS011;23337;52.212;9.926;2023-04-24T02:02:41;2.40;;;1.33;;
37483;SDS011;23337;52.212;9.926;2023-04-24T02:05:08;1.67;;;0.80;;
37483;SDS011;23337;52.212;9.926;2023-04-24T02:07:34;1.10;;;1.00;;
37483;SDS011;23337;52.212;9.926;2023-04-24T02:10:00;1.17;;;0.80;;
37483;SDS011;23337;52.212;9.926;2023-04-24T02:12:26;1.43;;;1.33;;
37483;SDS011;23337;52.212;9.926;2023-04-24T02:14:52;1.50;;;0.60;;
37483;SDS011;23337;52.212;9.926;2023-04-24T02:17:18;0.63;;;0.63;;
37483;SDS011;23337;52.212;9.926;2023-04-24T02:19:44;0.60;;;0.60;;
37483;SDS011;23337;52.212;9.926;2023-04-24T02:22:11;1.00;;;0.60;;
37483;SDS011;23337;52.212;9.926;2023-04-24T02:24:37;1.77;;;0.60;;
37483;SDS011;23337;52.212;9.926;2023-04-24T02:27:03;2.47;;;0.80;;
37483;SDS011;23337;52.212;9.926;2023-04-24T02:29:29;0.80;;;0.70;;
37483;SDS011;23337;52.212;9.926;2023-04-24T02:31:55;1.37;;;0.73;;
37483;SDS011;23337;52.212;9.926;2023-04-24T02:34:21;1.13;;;0.53;;
37483;SDS011;23337;52.212;9.926;2023-04-24T02:36:48;0.70;;;0.70;;
37483;SDS011;23337;52.212;9.926;2023-04-24T02:39:14;1.63;;;0.60;;
37483;SDS011;23337;52.212;9.926;2023-04-24T02:41:41;1.47;;;0.67;;
37483;SDS011;23337;52.212;9.926;2023-04-24T02:44:07;1.17;;;0.70;;
37483;SDS011;23337;52.212;9.926;2023-04-24T02:46:33;0.87;;;0.70;;
37483;SDS011;23337;52.212;9.926;2023-04-24T02:48:59;0.60;;;0.60;;
37483;SDS011;23337;52.212;9.926;2023-04-24T02:51:25;0.63;;;0.63;;
37483;SDS011;23337;52.212;9.926;2023-04-24T02:53:51;0.43;;;0.43;;
37483;SDS011;23337;52.212;9.926;2023-04-24T02:56:17;1.00;;;0.63;;
37483;SDS011;23337;52.212;9.926;2023-04-24T02:58:43;2.87;;;0.80;;
37483;SDS011;23337;52.212;9.926;2023-04-24T03:01:09;0.70;;;0.67;;
37483;SDS011;23337;52.212;9.926;2023-04-24T03:03:36;1.00;;;0.80;;
37483;SDS011;23337;52.212;9.926;2023-04-24T03:06:02;0.50;;;0.50;;
37483;SDS011;23337;52.212;9.926;2023-04-24T03:08:30;1.47;;;0.70;;
37483;SDS011;23337;52.212;9.926;2023-04-24T03:10:56;0.63;;;0.60;;
37483;SDS011;23337;52.212;9.926;2023-04-24T03:13:22;1.60;;;0.50;;
37483;SDS011;23337;52.212;9.926;2023-04-24T03:15:48;0.50;;;0.50;;
37483;SDS011;23337;52.212;9.926;2023-04-24T03:18:14;0.63;;;0.50;;
37483;SDS011;23337;52.212;9.926;2023-04-24T03:20:40;1.13;;;0.70;;
37483;SDS011;23337;52.212;9.926;2023-04-24T03:23:06;0.70;;;0.50;;
37483;SDS011;23337;52.212;9.926;2023-04-24T03:25:32;1.17;;;0.50;;
37483;SDS011;23337;52.212;9.926;2023-04-24T03:27:58;0.87;;;0.40;;
37483;SDS011;23337;52.212;9.926;2023-04-24T03:30:24;1.03;;;0.50;;
37483;SDS011;23337;52.212;9.926;2023-04-24T03:32:50;2.00;;;0.60;;
37483;SDS011;23337;52.212;9.926;2023-04-24T03:35:16;0.40;;;0.40;;
37483;SDS011;23337;52.212;9.926;2023-04-24T03:37:42;0.40;;;0.37;;
37483;SDS011;23337;52.212;9.926;2023-04-24T03:40:08;1.27;;;0.40;;
37483;SDS011;23337;52.212;9.926;2023-04-24T03:42:34;0.87;;;0.50;;
37483;SDS011;23337;52.212;9.926;2023-04-24T03:45:00;0.70;;;0.70;;
37483;SDS011;23337;52.212;9.926;2023-04-24T03:47:26;0.40;;;0.40;;
37483;SDS011;23337;52.212;9.926;2023-04-24T03:49:52;0.40;;;0.40;;
37483;SDS011;23337;52.212;9.926;2023-04-24T03:52:19;0.47;;;0.33;;
37483;SDS011;23337;52.212;9.926;2023-04-24T03:54:45;0.77;;;0.37;;
37483;SDS011;23337;52.212;9.926;2023-04-24T03:57:11;0.50;;;0.47;;
37483;SDS011;23337;52.212;9.926;2023-04-24T03:59:37;0.77;;;0.40;;
37483;SDS011;23337;52.212;9.926;2023-04-24T04:02:03;0.37;;;0.37;;
37483;SDS011;23337;52.212;9.926;2023-04-24T04:04:29;0.73;;;0.50;;
37483;SDS011;23337;52.212;9.926;2023-04-24T04:06:54;2.23;;;0.50;;
37483;SDS011;23337;52.212;9.926;2023-04-24T04:09:20;0.40;;;0.23;;
37483;SDS011;23337;52.212;9.926;2023-04-24T04:11:46;0.50;;;0.50;;
37483;SDS011;23337;52.212;9.926;2023-04-24T04:14:13;0.37;;;0.37;;
37483;SDS011;23337;52.212;9.926;2023-04-24T04:16:38;1.17;;;0.40;;
37483;SDS011;23337;52.212;9.926;2023-04-24T04:19:04;1.30;;;0.47;;
37483;SDS011;23337;52.212;9.926;2023-04-24T04:21:30;1.57;;;1.00;;
37483;SDS011;23337;52.212;9.926;2023-04-24T04:23:57;2.63;;;1.27;;
37483;SDS011;23337;52.212;9.926;2023-04-24T04:26:23;2.70;;;1.00;;
37483;SDS011;23337;52.212;9.926;2023-04-24T04:28:50;6.30;;;1.20;;
37483;SDS011;23337;52.212;9.926;2023-04-24T04:31:16;2.37;;;0.90;;
37483;SDS011;23337;52.212;9.926;2023-04-24T04:33:42;2.87;;;0.90;;
37483;SDS011;23337;52.212;9.926;2023-04-24T04:36:08;1.17;;;0.63;;
37483;SDS011;23337;52.212;9.926;2023-04-24T04:38:34;2.13;;;0.70;;
37483;SDS011;23337;52.212;9.926;2023-04-24T04:41:02;2.37;;;0.70;;
37483;SDS011;23337;52.212;9.926;2023-04-24T04:43:28;2.23;;;0.70;;
37483;SDS011;23337;52.212;9.926;2023-04-24T04:45:54;1.20;;;0.60;;
37483;SDS011;23337;52.212;9.926;2023-04-24T04:48:21;0.77;;;0.50;;
37483;SDS011;23337;52.212;9.926;2023-04-24T04:50:47;1.40;;;0.60;;
37483;SDS011;23337;52.212;9.926;2023-04-24T04:53:13;1.40;;;1.00;;
37483;SDS011;23337;52.212;9.926;2023-04-24T04:55:39;1.07;;;0.60;;
37483;SDS011;23337;52.212;9.926;2023-04-24T04:58:05;1.40;;;0.50;;
37483;SDS011;23337;52.212;9.926;2023-04-24T05:00:31;1.27;;;0.40;;
37483;SDS011;23337;52.212;9.926;2023-04-24T05:03:00;0.77;;;0.50;;
37483;SDS011;23337;52.212;9.926;2023-04-24T05:05:26;4.17;;;0.80;;
37483;SDS011;23337;52.212;9.926;2023-04-24T05:07:52;1.63;;;0.60;;
37483;SDS011;23337;52.212;9.926;2023-04-24T05:10:18;1.10;;;0.40;;
37483;SDS011;23337;52.212;9.926;2023-04-24T05:12:44;0.90;;;0.50;;
37483;SDS011;23337;52.212;9.926;2023-04-24T05:15:10;2.40;;;0.60;;
37483;SDS011;23337;52.212;9.926;2023-04-24T05:17:36;0.30;;;0.30;;
37483;SDS011;23337;52.212;9.926;2023-04-24T05:20:04;1.37;;;0.50;;
37483;SDS011;23337;52.212;9.926;2023-04-24T05:22:31;0.40;;;0.40;;
37483;SDS011;23337;52.212;9.926;2023-04-24T05:24:57;5.00;;;0.50;;
37483;SDS011;23337;52.212;9.926;2023-04-24T05:27:22;2.03;;;0.53;;
37483;SDS011;23337;52.212;9.926;2023-04-24T05:29:48;2.00;;;0.80;;
37483;SDS011;23337;52.212;9.926;2023-04-24T05:32:14;3.13;;;0.70;;
37483;SDS011;23337;52.212;9.926;2023-04-24T05:34:40;1.50;;;0.70;;
37483;SDS011;23337;52.212;9.926;2023-04-24T05:37:06;1.13;;;0.57;;
37483;SDS011;23337;52.212;9.926;2023-04-24T05:39:33;0.50;;;0.40;;
37483;SDS011;23337;52.212;9.926;2023-04-24T05:42:00;0.73;;;0.40;;
37483;SDS011;23337;52.212;9.926;2023-04-24T05:44:26;0.50;;;0.50;;
37483;SDS011;23337;52.212;9.926;2023-04-24T05:46:52;5.50;;;0.80;;
37483;SDS011;23337;52.212;9.926;2023-04-24T05:49:18;0.50;;;0.50;;
37483;SDS011;23337;52.212;9.926;2023-04-24T05:51:44;0.60;;;0.60;;
37483;SDS011;23337;52.212;9.926;2023-04-24T05:54:10;1.00;;;0.47;;
37483;SDS011;23337;52.212;9.926;2023-04-24T05:56:37;0.73;;;0.47;;
37483;SDS011;23337;52.212;9.926;2023-04-24T05:59:03;1.30;;;0.57;;
37483;SDS011;23337;52.212;9.926;2023-04-24T06:01:29;1.57;;;0.57;;
37483;SDS011;23337;52.212;9.926;2023-04-24T06:04:05;0.40;;;0.30;;
37483;SDS011;23337;52.212;9.926;2023-04-24T06:06:46;0.30;;;0.30;;
37483;SDS011;23337;52.212;9.926;2023-04-24T06:09:15;0.30;;;0.20;;
37483;SDS011;23337;52.212;9.926;2023-04-24T06:11:42;0.27;;;0.10;;
37483;SDS011;23337;52.212;9.926;2023-04-24T06:14:08;0.93;;;0.40;;
37483;SDS011;23337;52.212;9.926;2023-04-24T06:16:34;1.40;;;0.40;;
37483;SDS011;23337;52.212;9.926;2023-04-24T06:19:00;1.20;;;0.60;;
37483;SDS011;23337;52.212;9.926;2023-04-24T06:21:26;0.30;;;0.30;;
37483;SDS011;23337;52.212;9.926;2023-04-24T06:23:52;1.73;;;0.30;;
37483;SDS011;23337;52.212;9.926;2023-04-24T06:26:18;1.33;;;0.40;;
37483;SDS011;23337;52.212;9.926;2023-04-24T06:28:44;1.50;;;0.83;;
37483;SDS011;23337;52.212;9.926;2023-04-24T06:31:10;2.93;;;0.60;;
37483;SDS011;23337;52.212;9.926;2023-04-24T06:33:36;0.50;;;0.50;;
37483;SDS011;23337;52.212;9.926;2023-04-24T06:36:02;1.60;;;0.50;;
37483;SDS011;23337;52.212;9.926;2023-04-24T06:38:29;1.53;;;0.87;;
37483;SDS011;23337;52.212;9.926;2023-04-24T06:40:55;0.90;;;0.70;;
37483;SDS011;23337;52.212;9.926;2023-04-24T06:43:21;1.47;;;0.97;;
37483;SDS011;23337;52.212;9.926;2023-04-24T06:45:47;1.93;;;1.73;;
37483;SDS011;23337;52.212;9.926;2023-04-24T06:48:12;1.23;;;0.80;;
37483;SDS011;23337;52.212;9.926;2023-04-24T06:50:38;3.47;;;1.07;;
37483;SDS011;23337;52.212;9.926;2023-04-24T06:53:04;2.17;;;1.20;;
37483;SDS011;23337;52.212;9.926;2023-04-24T06:55:30;2.20;;;0.90;;
37483;SDS011;23337;52.212;9.926;2023-04-24T06:57:56;1.53;;;1.17;;
37483;SDS011;23337;52.212;9.926;2023-04-24T07:00:22;1.60;;;1.30;;
37483;SDS011;23337;52.212;9.926;2023-04-24T07:02:49;1.80;;;1.30;;
37483;SDS011;23337;52.212;9.926;2023-04-24T07:05:15;1.53;;;1.10;;
37483;SDS011;23337;52.212;9.926;2023-04-24T07:07:44;1.97;;;1.10;;
37483;SDS011;23337;52.212;9.926;2023-04-24T07:10:11;1.53;;;1.40;;
37483;SDS011;23337;52.212;9.926;2023-04-24T07:12:38;2.83;;;1.43;;
37483;SDS011;23337;52.212;9.926;2023-04-24T07:15:05;1.67;;;1.40;;
37483;SDS011;23337;52.212;9.926;2023-04-24T07:17:31;3.30;;;2.07;;
37483;SDS011;23337;52.212;9.926;2023-04-24T07:19:57;1.80;;;1.70;;
37483;SDS011;23337;52.212;9.926;2023-04-24T07:22:23;2.50;;;2.30;;
37483;SDS011;23337;52.212;9.926;2023-04-24T07:24:49;2.70;;;2.50;;
37483;SDS011;23337;52.212;9.926;2023-04-24T07:27:15;2.47;;;2.10;;
37483;SDS011;23337;52.212;9.926;2023-04-24T07:29:41;2.20;;;2.00;;
37483;SDS011;23337;52.212;9.926;2023-04-24T07:32:07;3.37;;;3.03;;
37483;SDS011;23337;52.212;9.926;2023-04-24T07:34:33;3.13;;;2.80;;
37483;SDS011;23337;52.212;9.926;2023-04-24T07:36:59;3.27;;;2.97;;
37483;SDS011;23337;52.212;9.926;2023-04-24T07:39:25;3.77;;;3.47;;
37483;SDS011;23337;52.212;9.926;2023-04-24T07:41:51;3.87;;;3.47;;
37483;SDS011;23337;52.212;9.926;2023-04-24T07:44:17;4.00;;;3.70;;
37483;SDS011;23337;52.212;9.926;2023-04-24T07:46:43;4.10;;;3.70;;
37483;SDS011;23337;52.212;9.926;2023-04-24T07:49:09;4.90;;;4.03;;
37483;SDS011;23337;52.212;9.926;2023-04-24T07:51:35;3.90;;;3.50;;
37483;SDS011;23337;52.212;9.926;2023-04-24T07:54:03;4.77;;;4.30;;
37483;SDS011;23337;52.212;9.926;2023-04-24T07:56:31;8.17;;;4.93;;
37483;SDS011;23337;52.212;9.926;2023-04-24T07:58:57;6.37;;;5.77;;
37483;SDS011;23337;52.212;9.926;2023-04-24T08:01:23;6.80;;;6.10;;
37483;SDS011;23337;52.212;9.926;2023-04-24T08:03:49;6.30;;;5.70;;
37483;SDS011;23337;52.212;9.926;2023-04-24T08:06:15;6.10;;;5.60;;
37483;SDS011;23337;52.212;9.926;2023-04-24T08:08:41;7.80;;;6.80;;
37483;SDS011;23337;52.212;9.926;2023-04-24T08:11:07;9.07;;;6.83;;
37483;SDS011;23337;52.212;9.926;2023-04-24T08:13:33;7.93;;;7.20;;
37483;SDS011;23337;52.212;9.926;2023-04-24T08:15:59;6.97;;;6.27;;
37483;SDS011;23337;52.212;9.926;2023-04-24T08:18:25;6.70;;;6.10;;
37483;SDS011;23337;52.212;9.926;2023-04-24T08:20:51;7.97;;;7.17;;
37483;SDS011;23337;52.212;9.926;2023-04-24T08:23:17;6.90;;;6.20;;
37483;SDS011;23337;52.212;9.926;2023-04-24T08:25:43;6.83;;;6.23;;
37483;SDS011;23337;52.212;9.926;2023-04-24T08:28:09;6.77;;;6.00;;
37483;SDS011;23337;52.212;9.926;2023-04-24T08:30:35;6.23;;;5.63;;
37483;SDS011;23337;52.212;9.926;2023-04-24T08:33:03;7.03;;;5.70;;
37483;SDS011;23337;52.212;9.926;2023-04-24T08:35:29;5.87;;;5.27;;
37483;SDS011;23337;52.212;9.926;2023-04-24T08:37:55;6.50;;;5.80;;
37483;SDS011;23337;52.212;9.926;2023-04-24T08:40:22;5.80;;;5.30;;
37483;SDS011;23337;52.212;9.926;2023-04-24T08:42:50;5.80;;;5.30;;
37483;SDS011;23337;52.212;9.926;2023-04-24T08:45:18;6.60;;;5.83;;
37483;SDS011;23337;52.212;9.926;2023-04-24T08:47:44;5.37;;;4.87;;
37483;SDS011;23337;52.212;9.926;2023-04-24T08:50:10;5.40;;;4.80;;
37483;SDS011;23337;52.212;9.926;2023-04-24T08:52:37;4.80;;;4.40;;
37483;SDS011;23337;52.212;9.926;2023-04-24T08:55:03;6.50;;;5.07;;
37483;SDS011;23337;52.212;9.926;2023-04-24T08:57:29;5.17;;;3.90;;
37483;SDS011;23337;52.212;9.926;2023-04-24T08:59:56;4.60;;;4.20;;
37483;SDS011;23337;52.212;9.926;2023-04-24T09:02:23;4.10;;;3.67;;
37483;SDS011;23337;52.212;9.926;2023-04-24T09:04:49;4.57;;;4.17;;
37483;SDS011;23337;52.212;9.926;2023-04-24T09:07:16;4.13;;;3.73;;
37483;SDS011;23337;52.212;9.926;2023-04-24T09:09:43;4.60;;;3.53;;
37483;SDS011;23337;52.212;9.926;2023-04-24T09:12:09;5.80;;;3.80;;
37483;SDS011;23337;52.212;9.926;2023-04-24T09:14:36;4.80;;;4.40;;
37483;SDS011;23337;52.212;9.926;2023-04-24T09:17:07;4.80;;;4.33;;
37483;SDS011;23337;52.212;9.926;2023-04-24T09:19:33;5.37;;;3.97;;
37483;SDS011;23337;52.212;9.926;2023-04-24T09:21:59;3.83;;;3.43;;
37483;SDS011;23337;52.212;9.926;2023-04-24T09:24:26;3.90;;;3.17;;
37483;SDS011;23337;52.212;9.926;2023-04-24T09:26:56;3.53;;;3.23;;
37483;SDS011;23337;52.212;9.926;2023-04-24T09:29:23;3.80;;;3.27;;
37483;SDS011;23337;52.212;9.926;2023-04-24T09:31:49;2.83;;;2.63;;
37483;SDS011;23337;52.212;9.926;2023-04-24T09:34:19;4.00;;;3.60;;
37483;SDS011;23337;52.212;9.926;2023-04-24T09:36:46;4.23;;;3.33;;
37483;SDS011;23337;52.212;9.926;2023-04-24T09:39:13;3.87;;;3.57;;
37483;SDS011;23337;52.212;9.926;2023-04-24T09:41:56;4.70;;;2.93;;
37483;SDS011;23337;52.212;9.926;2023-04-24T09:44:24;4.17;;;3.83;;
37483;SDS011;23337;52.212;9.926;2023-04-24T09:46:59;4.47;;;3.83;;
37483;SDS011;23337;52.212;9.926;2023-04-24T09:51:51;2.57;;;2.37;;
37483;SDS011;23337;52.212;9.926;2023-04-24T09:54:19;2.80;;;2.60;;
37483;SDS011;23337;52.212;9.926;2023-04-24T09:56:46;2.07;;;1.87;;
37483;SDS011;23337;52.212;9.926;2023-04-24T09:59:13;3.03;;;2.57;;
37483;SDS011;23337;52.212;9.926;2023-04-24T10:01:39;3.57;;;2.50;;
37483;SDS011;23337;52.212;9.926;2023-04-24T10:04:14;3.13;;;2.50;;
37483;SDS011;23337;52.212;9.926;2023-04-24T10:06:41;4.83;;;2.43;;
37483;SDS011;23337;52.212;9.926;2023-04-24T10:09:08;2.50;;;2.17;;
37483;SDS011;23337;52.212;9.926;2023-04-24T10:11:36;2.07;;;1.87;;
37483;SDS011;23337;52.212;9.926;2023-04-24T10:14:02;1.90;;;1.80;;
37483;SDS011;23337;52.212;9.926;2023-04-24T10:16:29;2.03;;;1.83;;
37483;SDS011;23337;52.212;9.926;2023-04-24T10:18:55;2.10;;;1.80;;
37483;SDS011;23337;52.212;9.926;2023-04-24T10:21:21;2.23;;;1.87;;
37483;SDS011;23337;52.212;9.926;2023-04-24T10:23:48;2.33;;;1.93;;
37483;SDS011;23337;52.212;9.926;2023-04-24T10:26:15;3.07;;;2.33;;
37483;SDS011;23337;52.212;9.926;2023-04-24T10:28:46;3.00;;;2.70;;
37483;SDS011;23337;52.212;9.926;2023-04-24T10:31:16;3.67;;;2.30;;
37483;SDS011;23337;52.212;9.926;2023-04-24T10:33:43;2.50;;;2.30;;
37483;SDS011;23337;52.212;9.926;2023-04-24T10:36:09;2.47;;;2.00;;
37483;SDS011;23337;52.212;9.926;2023-04-24T10:38:36;2.77;;;2.30;;
37483;SDS011;23337;52.212;9.926;2023-04-24T10:43:35;2.60;;;2.40;;
37483;SDS011;23337;52.212;9.926;2023-04-24T10:46:02;2.40;;;2.07;;
37483;SDS011;23337;52.212;9.926;2023-04-24T10:48:28;2.40;;;2.20;;
37483;SDS011;23337;52.212;9.926;2023-04-24T10:50:54;2.20;;;2.00;;
37483;SDS011;23337;52.212;9.926;2023-04-24T10:53:21;2.80;;;2.13;;
37483;SDS011;23337;52.212;9.926;2023-04-24T10:55:52;3.13;;;2.00;;
37483;SDS011;23337;52.212;9.926;2023-04-24T10:58:22;1.97;;;1.80;;
37483;SDS011;23337;52.212;9.926;2023-04-24T11:00:58;2.60;;;2.40;;
37483;SDS011;23337;52.212;9.926;2023-04-24T11:03:31;2.80;;;2.37;;
37483;SDS011;23337;52.212;9.926;2023-04-24T11:06:02;3.03;;;2.40;;
37483;SDS011;23337;52.212;9.926;2023-04-24T11:08:36;2.30;;;2.10;;
37483;SDS011;23337;52.212;9.926;2023-04-24T11:11:03;3.20;;;2.13;;
37483;SDS011;23337;52.212;9.926;2023-04-24T11:14:13;2.30;;;1.47;;
37483;SDS011;23337;52.212;9.926;2023-04-24T11:16:26;1.43;;;1.33;;
37483;SDS011;23337;52.212;9.926;2023-04-24T11:19:27;1.53;;;1.43;;
37483;SDS011;23337;52.212;9.926;2023-04-24T11:21:57;1.40;;;1.30;;
37483;SDS011;23337;52.212;9.926;2023-04-24T11:27:14;1.17;;;1.07;;
37483;SDS011;23337;52.212;9.926;2023-04-24T11:29:41;3.30;;;1.30;;
37483;SDS011;23337;52.212;9.926;2023-04-24T11:32:15;1.53;;;1.17;;
37483;SDS011;23337;52.212;9.926;2023-04-24T11:34:45;1.33;;;1.00;;
37483;SDS011;23337;52.212;9.926;2023-04-24T11:37:11;2.13;;;1.10;;
37483;SDS011;23337;52.212;9.926;2023-04-24T11:39:38;1.07;;;0.93;;
37483;SDS011;23337;52.212;9.926;2023-04-24T11:42:04;1.83;;;1.37;;
37483;SDS011;23337;52.212;9.926;2023-04-24T11:44:32;1.57;;;1.47;;
37483;SDS011;23337;52.212;9.926;2023-04-24T11:46:59;2.13;;;1.60;;
37483;SDS011;23337;52.212;9.926;2023-04-24T11:49:25;2.33;;;1.50;;
37483;SDS011;23337;52.212;9.926;2023-04-24T11:51:54;2.27;;;1.60;;
37483;SDS011;23337;52.212;9.926;2023-04-24T11:54:20;1.83;;;1.50;;
37483;SDS011;23337;52.212;9.926;2023-04-24T11:56:47;1.83;;;1.40;;
37483;SDS011;23337;52.212;9.926;2023-04-24T11:59:13;1.47;;;1.37;;
37483;SDS011;23337;52.212;9.926;2023-04-24T12:01:45;1.40;;;1.30;;
37483;SDS011;23337;52.212;9.926;2023-04-24T12:04:11;1.47;;;1.37;;
37483;SDS011;23337;52.212;9.926;2023-04-24T12:06:37;2.57;;;1.63;;
37483;SDS011;23337;52.212;9.926;2023-04-24T12:09:04;1.30;;;1.20;;
37483;SDS011;23337;52.212;9.926;2023-04-24T12:11:29;1.83;;;1.30;;
37483;SDS011;23337;52.212;9.926;2023-04-24T12:13:55;1.97;;;1.30;;
37483;SDS011;23337;52.212;9.926;2023-04-24T12:16:22;2.50;;;1.00;;
37483;SDS011;23337;52.212;9.926;2023-04-24T12:18:50;1.30;;;1.20;;
37483;SDS011;23337;52.212;9.926;2023-04-24T12:21:22;1.37;;;1.20;;
37483;SDS011;23337;52.212;9.926;2023-04-24T12:23:53;1.43;;;1.30;;
37483;SDS011;23337;52.212;9.926;2023-04-24T12:26:19;1.53;;;0.73;;
37483;SDS011;23337;52.212;9.926;2023-04-24T12:28:48;0.80;;;0.50;;
37483;SDS011;23337;52.212;9.926;2023-04-24T12:31:14;0.47;;;0.47;;
37483;SDS011;23337;52.212;9.926;2023-04-24T12:33:41;0.33;;;0.33;;
37483;SDS011;23337;52.212;9.926;2023-04-24T12:36:09;0.57;;;0.57;;
37483;SDS011;23337;52.212;9.926;2023-04-24T12:38:35;1.80;;;0.70;;
37483;SDS011;23337;52.212;9.926;2023-04-24T12:41:09;0.90;;;0.90;;
37483;SDS011;23337;52.212;9.926;2023-04-24T12:43:35;1.67;;;0.90;;
37483;SDS011;23337;52.212;9.926;2023-04-24T12:46:01;1.43;;;0.93;;
37483;SDS011;23337;52.212;9.926;2023-04-24T12:48:28;1.00;;;0.80;;
37483;SDS011;23337;52.212;9.926;2023-04-24T12:50:54;1.27;;;1.17;;
37483;SDS011;23337;52.212;9.926;2023-04-24T12:53:21;0.90;;;0.90;;
37483;SDS011;23337;52.212;9.926;2023-04-24T12:55:47;1.60;;;0.77;;
37483;SDS011;23337;52.212;9.926;2023-04-24T12:58:18;0.93;;;0.93;;
37483;SDS011;23337;52.212;9.926;2023-04-24T13:00:45;1.03;;;0.97;;
37483;SDS011;23337;52.212;9.926;2023-04-24T13:03:11;1.43;;;1.10;;
37483;SDS011;23337;52.212;9.926;2023-04-24T13:05:37;1.60;;;0.87;;
37483;SDS011;23337;52.212;9.926;2023-04-24T13:08:03;2.50;;;1.00;;
37483;SDS011;23337;52.212;9.926;2023-04-24T13:10:29;0.87;;;0.77;;
37483;SDS011;23337;52.212;9.926;2023-04-24T13:12:55;3.07;;;1.37;;
37483;SDS011;23337;52.212;9.926;2023-04-24T13:15:21;2.17;;;1.00;;
37483;SDS011;23337;52.212;9.926;2023-04-24T13:17:47;0.83;;;0.83;;
37483;SDS011;23337;52.212;9.926;2023-04-24T13:20:13;0.90;;;0.90;;
37483;SDS011;23337;52.212;9.926;2023-04-24T13:22:39;0.60;;;0.60;;
37483;SDS011;23337;52.212;9.926;2023-04-24T13:25:05;0.63;;;0.63;;
37483;SDS011;23337;52.212;9.926;2023-04-24T13:27:32;0.63;;;0.50;;
37483;SDS011;23337;52.212;9.926;2023-04-24T13:29:58;0.30;;;0.30;;
37483;SDS011;23337;52.212;9.926;2023-04-24T13:32:24;1.87;;;0.30;;
37483;SDS011;23337;52.212;9.926;2023-04-24T13:34:50;0.57;;;0.20;;
37483;SDS011;23337;52.212;9.926;2023-04-24T13:37:16;0.47;;;0.30;;
37483;SDS011;23337;52.212;9.926;2023-04-24T13:39:42;1.80;;;0.83;;
37483;SDS011;23337;52.212;9.926;2023-04-24T13:42:08;5.40;;;0.57;;
37483;SDS011;23337;52.212;9.926;2023-04-24T13:44:34;0.40;;;0.40;;
37483;SDS011;23337;52.212;9.926;2023-04-24T13:47:00;1.20;;;0.70;;
37483;SDS011;23337;52.212;9.926;2023-04-24T13:49:26;0.60;;;0.60;;
37483;SDS011;23337;52.212;9.926;2023-04-24T13:51:52;0.37;;;0.37;;
37483;SDS011;23337;52.212;9.926;2023-04-24T13:54:18;0.53;;;0.40;;
37483;SDS011;23337;52.212;9.926;2023-04-24T13:56:44;0.43;;;0.43;;
37483;SDS011;23337;52.212;9.926;2023-04-24T13:59:12;0.20;;;0.20;;
37483;SDS011;23337;52.212;9.926;2023-04-24T14:01:38;0.63;;;0.30;;
37483;SDS011;23337;52.212;9.926;2023-04-24T14:04:04;0.40;;;0.30;;
37483;SDS011;23337;52.212;9.926;2023-04-24T14:06:30;1.80;;;0.53;;
37483;SDS011;23337;52.212;9.926;2023-04-24T14:08:56;0.20;;;0.20;;
37483;SDS011;23337;52.212;9.926;2023-04-24T14:11:22;0.40;;;0.30;;
37483;SDS011;23337;52.212;9.926;2023-04-24T14:13:48;0.20;;;0.10;;
37483;SDS011;23337;52.212;9.926;2023-04-24T14:16:14;0.30;;;0.20;;
37483;SDS011;23337;52.212;9.926;2023-04-24T14:18:40;0.20;;;0.20;;
37483;SDS011;23337;52.212;9.926;2023-04-24T14:21:06;0.20;;;0.13;;
37483;SDS011;23337;52.212;9.926;2023-04-24T14:23:32;2.03;;;1.10;;
37483;SDS011;23337;52.212;9.926;2023-04-24T14:25:58;1.07;;;0.47;;
37483;SDS011;23337;52.212;9.926;2023-04-24T14:28:24;1.67;;;1.33;;
37483;SDS011;23337;52.212;9.926;2023-04-24T14:30:51;2.53;;;1.60;;
37483;SDS011;23337;52.212;9.926;2023-04-24T14:33:17;1.50;;;1.20;;
37483;SDS011;23337;52.212;9.926;2023-04-24T14:35:43;0.93;;;0.80;;
37483;SDS011;23337;52.212;9.926;2023-04-24T14:38:10;1.27;;;0.90;;
37483;SDS011;23337;52.212;9.926;2023-04-24T14:40:36;1.00;;;0.70;;
37483;SDS011;23337;52.212;9.926;2023-04-24T14:43:02;0.93;;;0.77;;
37483;SDS011;23337;52.212;9.926;2023-04-24T14:45:28;2.27;;;1.40;;
37483;SDS011;23337;52.212;9.926;2023-04-24T14:47:54;2.93;;;1.80;;
37483;SDS011;23337;52.212;9.926;2023-04-24T14:50:21;1.90;;;1.47;;
37483;SDS011;23337;52.212;9.926;2023-04-24T14:52:47;2.43;;;1.33;;